Tiempo atmosférico en la estación meteorológica de Ciudad Real, Ciudad Real (628 m.)

Fecha
DESCASC
Temp. máxima en grados centígrados (hora)
DESCASC
Temp. mínima en grados centígrados (hora)
DESCASC
Temp. media en grados centígrados
DESCASC
Racha de viento máxima en m/sg (hora)
DESCASC
Velocidad máxima media en intervalos de 10 minutos(hora)
DESCASC
Precipitaciones diarias en mm
DESCASC
Precipitaciones de 00:00 a 06:00 en mm
DESCASC
Precipitaciones de 06:00 a 12:00 en mm
DESCASC
Precipitaciones de 12:00 a 18:00 en mm
DESCASC
Precipitaciones de 18:00 a 24:00 en mm
DESCASC
21-08-2017 38 (17:10) 20.7 (08:00) 29.4 6.39 (17:10) 3.61 (22:30) 0 0 0 0 0
20-08-2017 37.8 (17:50) 21.4 (07:50) 29.6 7.78 (13:10) 4.17 (10:20) 0 0 0 0 0
19-08-2017 38.6 (17:50) 21.5 (08:30) 30 7.5 (17:00) 3.89 (18:20) 0 0 0 0 0
18-08-2017 38.6 (15:40) 20.8 (08:10) 29.7 7.78 (13:50) 3.89 (18:00) 0 0 0 0 0
17-08-2017 38.4 (16:10) 18.3 (00:00) 28.4 6.67 (17:50) 3.33 (17:50) 0 0 0 0 0
16-08-2017 36.5 (17:00) 21.5 (00:00) 29 9.17 (15:20) 4.17 (15:40) 0 0 0 0 0
15-08-2017 36.5 (16:40) 20.7 (00:00) 28.6 10.28 (18:10) 4.72 (18:40) 0 0 0 0 0
14-08-2017 36.3 (17:20) 18.9 (07:30) 27.6 5.83 (14:30) 2.5 (16:30) 0 0 0 0 0
13-08-2017 35.7 (16:20) 17.2 (00:00) 26.5 5.56 (19:50) 3.06 (22:30) 0 0 0 0 0
12-08-2017 33.7 (17:10) 16.3 (00:00) 25 7.78 (09:20) 4.44 (09:10) 0 0 0 0 0
11-08-2017 31.4 (19:00) 14.8 (00:00) 23.1 7.78 (11:10) 4.44 (11:50) 0 0 0 0 0
10-08-2017 29.8 (18:20) 14.6 (00:00) 22.2 10.83 (03:20) 5 (01:00) 0 0 0 0 0
09-08-2017 31.8 (16:10) 16.4 (00:00) 24.1 11.11 (23:10) 5 (23:10) 0 0 0 0 0
08-08-2017 32.8 (16:30) 19.3 (00:00) 26 7.78 (17:10) 3.61 (16:00) 0 0 0 0 0
07-08-2017 38.7 (16:30) 23.9 (00:00) 31.3 10.83 (16:30) 5.28 (17:00) 0 0 0 0 0
06-08-2017 38.5 (17:00) 22.3 (00:00) 30.4 8.33 (18:20) 3.61 (16:20) 0 0 0 0 0
05-08-2017 40.4 (16:20) 24.3 (00:00) 32.4 10.56 (20:20) 4.17 (20:20) 0 0 0 0 0
04-08-2017 39.9 (18:40) 21.3 (00:00) 30.6 7.78 (19:10) 3.33 (19:10) 0 0 0 0 0
03-08-2017 38.5 (18:30) 19.5 (00:00) 29 7.78 (19:30) 3.89 (19:30) 0 0 0 0 0
02-08-2017 36 (16:20) 18.8 (00:00) 27.4 6.11 (18:40) 3.33 (18:50) 0 0 0 0 0
01-08-2017 34.3 (16:20) 21.1 (00:00) 27.7 7.78 (17:00) 4.17 (17:00) 0 0 0 0 0
31-07-2017 36 (16:50) 22.5 (00:00) 29.3 9.17 (16:20) 4.44 (18:50) 0 0 0 0 0
30-07-2017 39.4 (16:40) 21.9 (00:00) 30.7 9.72 (17:40) 4.44 (20:10) 0 0 0 0 0
29-07-2017 38.2 (15:50) 20.5 (00:00) 29.4 8.89 (17:40) 4.17 (14:50) 0 0 0 0 0
28-07-2017 38.5 (17:40) 23.1 (00:00) 30.8 7.78 (13:40) 3.89 (20:00) 0 0 0 0 0
27-07-2017 38.3 (17:00) 20.6 (00:00) 29.4 8.61 (17:10) 3.89 (16:10) 0 0 0 0 0
26-07-2017 35.9 (19:10) 19 (00:00) 27.5 6.94 (17:20) 3.61 (17:20) 0 0 0 0 0
25-07-2017 35.1 (18:20) 19.8 (00:00) 27.4 8.06 (20:10) 4.17 (20:30) 0 0 0 0 0
24-07-2017 36.4 (17:20) 20.9 (00:00) 28.7 7.22 (18:00) 3.61 (15:10) 0 0 0 0 0
23-07-2017 36.3 (16:40) 18.8 (00:00) 27.5 7.78 (16:10) 3.61 (15:50) 0 0 0 0 0

Gráficas

Temp. máximas Temp. mínimas Temp. medias Precipitaciones Rachas de viento máximas Velocidades máximas media en intervalos de 10 minutos

Datos horarios

Fecha y hora oficial Temperatura (ºC) Velocidad del viento (km/h) Dirección del viento Racha (km/h) Dirección de racha Precipitación (mm) Presión (hPa) Tendencia (hPa) Humedad (%)
2017-08-21 23:00:00 31.9 10 Sudeste 22 Este 0 944.6 1.7 29
2017-08-21 22:00:00 32.5 7 Nordeste 16 Nordeste 0 943.9 0.7 27
2017-08-21 21:00:00 34.3 7 Nordeste 16 Nordeste 0 943.2 -0.2 24
2017-08-21 20:00:00 35.7 5 Este 13 Este 0 942.9 -1 24
2017-08-21 19:00:00 36.9 8 Este 15 Este 0 943.2 -1.4 22
2017-08-21 18:00:00 37.3 7 Nordeste 23 Nordeste 0 943.4 -1.9 22
2017-08-21 17:00:00 37.8 4 Noroeste 18 Sudeste 0 943.9 -1.9 23
2017-08-21 16:00:00 37.4 8 Sudeste 15 Sur 0 944.6 -2 24
2017-08-21 15:00:00 36 7 Oeste 15 Oeste 0 945.3 -1.7 26
2017-08-21 14:00:00 34.8 5 Noroeste 13 Noroeste 0 945.8 -1.4 30
2017-08-21 13:00:00 33.1 5 Norte 13 Este 0 946.6 -0.7 34
2017-08-21 12:00:00 30.1 5 Nordeste 11 Este 0 947 -0.2 44
2017-08-21 11:00:00 27.3 5 Este 15 Este 0 947.2 0.2 52
2017-08-21 10:00:00 24.3 8 Este 18 Nordeste 0 947.3 0.6 61
2017-08-21 09:00:00 21.8 8 Nordeste 20 Este 0 947.2 0.6 70
2017-08-21 08:00:00 20.7 8 Este 17 Este 0 947 0.6 74
2017-08-21 07:00:00 21.4 9 Nordeste 19 Nordeste 0 946.7 0.2 71
2017-08-21 06:00:00 22 10 Nordeste 19 Nordeste 0 946.6 0.2 69
2017-08-21 05:00:00 22.7 12 Nordeste 20 Nordeste 0 946.4 0 66
2017-08-21 04:00:00 24 8 Nordeste 20 Nordeste 0 946.5 0.2 60
2017-08-21 03:00:00 25.5 6 Nordeste 12 Nordeste 0 946.4 0.3 48
2017-08-21 02:00:00 26.4 3 Noroeste 12 Norte 0 946.4 0.8 42
2017-08-21 01:00:00 27.3 3 Norte 8 Nordeste 0 946.3 1.1 37
2017-08-21 00:00:00 28.8 5 Nordeste 14 Este 0 946.1 1.4 34
2017-08-20 23:00:00 30.7 9 Este 13 Este 0 945.6 1.1 29
2017-08-20 22:00:00 31.8 7 Nordeste 12 Nordeste 0 945.2 0.3 26
2017-08-20 21:00:00 34 6 Nordeste 10 Nordeste 0 944.7 -0.6 21
2017-08-20 20:00:00 35.7 5 Nordeste 14 Nordeste 0 944.5 -1.3 19
2017-08-20 19:00:00 37.1 7 Nordeste 17 Este 0 944.9 -1.6 18
2017-08-20 18:00:00 37.5 8 Este 18 Nordeste 0 945.3 -1.6 17
2017-08-20 17:00:00 37.6 5 Norte 17 Sur 0 945.8 -1.7 21
2017-08-20 16:00:00 36.9 7 Este 21 Nordeste 0 946.5 -1.4 24
2017-08-20 15:00:00 35.3 11 Nordeste 25 Este 0 946.9 -1.4 30
2017-08-20 14:00:00 33.5 11 Nordeste 28 Nordeste 0 947.5 -0.9 37
2017-08-20 13:00:00 31.6 12 Nordeste 26 Nordeste 0 947.9 -0.4 40
2017-08-20 12:00:00 29.6 11 Nordeste 27 Nordeste 0 948.3 0.5 45
2017-08-20 11:00:00 27.2 13 Nordeste 27 Nordeste 0 948.4 1.4 54
2017-08-20 10:00:00 24.7 11 Nordeste 26 Nordeste 0 948.3 2 63
2017-08-20 09:00:00 22.5 14 Nordeste 26 Este 0 947.8 1.7 72
2017-08-20 08:00:00 21.4 9 Este 19 Nordeste 0 947 1 74
2017-08-20 07:00:00 21.7 8 Nordeste 18 Nordeste 0 946.3 0.5 70
2017-08-20 06:00:00 22.3 8 Nordeste 19 Nordeste 0 946.1 0.5 65
2017-08-20 05:00:00 23.1 9 Nordeste 23 Nordeste 0 946 0.3 55
2017-08-20 04:00:00 24 12 Nordeste 22 Nordeste 0 945.8 0.3 53
2017-08-20 03:00:00 25.5 10 Nordeste 18 Nordeste 0 945.6 0.3 51
2017-08-20 02:00:00 26.9 5 Nordeste 12 Nordeste 0 945.7 0.6 48
2017-08-20 01:00:00 28 4 Nordeste 15 Nordeste 0 945.5 1 40
2017-08-20 00:00:00 29.7 5 Norte 11 Norte 0 945.3 1.6 24
2017-08-19 23:00:00 31.4 8 Noroeste 14 Norte 0 945.1 1.7 19
2017-08-19 22:00:00 33 8 Noroeste 19 Noroeste 0 944.5 1.4 16
2017-08-19 21:00:00 34.9 10 Noroeste 19 Noroeste 0 943.7 0.5 15
2017-08-19 20:00:00 36.4 10 Noroeste 24 Noroeste 0 943.4 -0.2 14
2017-08-19 19:00:00 37.7 13 Noroeste 27 Oeste 0 943.1 -1 14
2017-08-19 18:00:00 38.5 7 Oeste 25 Sudoeste 0 943.2 -1.4 14
2017-08-19 17:00:00 38.4 13 Noroeste 27 Noroeste 0 943.6 -1.5 14
2017-08-19 16:00:00 37.9 10 Noroeste 19 Oeste 0 944.1 -1.2 14
2017-08-19 15:00:00 37.3 9 Noroeste 18 Noroeste 0 944.6 -1.2 18
2017-08-19 14:00:00 36.4 5 Sudoeste 13 Este 0 945.1 -0.6 17
2017-08-19 13:00:00 34.7 4 Nordeste 14 Sudeste 0 945.3 -0.3 23
2017-08-19 12:00:00 31.6 8 Este 17 Este 0 945.8 0.4 28
2017-08-19 11:00:00 29.2 10 Este 19 Este 0 945.7 0.7 34
2017-08-19 10:00:00 26.7 11 Este 18 Nordeste 0 945.6 1.3 37
2017-08-19 09:00:00 22.3 3 Nordeste 8 Nordeste 0 945.4 1.2 40
2017-08-19 08:00:00 21.7 2 Norte 8 Norte 0 945 0.8 38
2017-08-19 07:00:00 22.2 3 Norte 14 Nordeste 0 944.3 0.1 37
2017-08-19 06:00:00 23.3 2 Este 6 Sudeste 0 944.2 -0.1 35
2017-08-19 05:00:00 24.6 0 Calma 7 Oeste 0 944.2 -0.1 34
2017-08-19 04:00:00 25.8 2 Oeste 7 Oeste 0 944.2 -0.2 31
2017-08-19 03:00:00 27.2 3 Noroeste 10 Oeste 0 944.3 0.2 28
2017-08-19 02:00:00 27.4 5 Sudoeste 9 Sudoeste 0 944.3 0.2 25
2017-08-19 01:00:00 28.7 4 Sudoeste 9 Sudoeste 0 944.4 0.7 23
2017-08-19 00:00:00 30.1 8 Oeste 16 Oeste 0 944.1 0.7 20
2017-08-18 23:00:00 31.5 9 Noroeste 15 Oeste 0 944.1 0.9 18
2017-08-18 22:00:00 33 8 Oeste 16 Oeste 0 943.7 0.6 18
2017-08-18 21:00:00 34.6 7 Noroeste 17 Noroeste 0 943.4 0.2 18
2017-08-18 20:00:00 36 9 Noroeste 26 Noroeste 0 943.2 -0.3 17
2017-08-18 19:00:00 37.1 9 Sudoeste 22 Oeste 0 943.1 -0.9 16
2017-08-18 18:00:00 37.9 14 Noroeste 26 Oeste 0 943.2 -1.3 15
2017-08-18 17:00:00 38.4 8 Oeste 27 Oeste 0 943.5 -1.6 15
2017-08-18 16:00:00 38.3 10 Noroeste 27 Oeste 0 944 -1.5 15
2017-08-18 15:00:00 37.9 10 Oeste 27 Oeste 0 944.5 -1.6 16
2017-08-18 14:00:00 36.9 11 Oeste 28 Oeste 0 945.1 -1.2 17
2017-08-18 13:00:00 36.2 8 Oeste 17 Noroeste 0 945.5 -0.9 18
2017-08-18 12:00:00 34.1 6 Sudoeste 14 Noroeste 0 946.1 0 24
2017-08-18 11:00:00 31.2 6 Oeste 11 Sudoeste 0 946.3 0.9 25
2017-08-18 10:00:00 26.9 0 Calma 4 Este 0 946.4 1.2 30
2017-08-18 09:00:00 22.3 0 Calma 2 Oeste 0 946.1 1.2 44
2017-08-18 08:00:00 20.9 0 Calma 3 Este 0 945.4 0.3 37
2017-08-18 07:00:00 21.7 0 Calma 9 Sudoeste 0 945.2 -0.1 34
2017-08-18 06:00:00 23 4 Sudoeste 9 Sudoeste 0 944.9 -0.6 33
2017-08-18 05:00:00 23.3 3 Sudoeste 9 Sudoeste 0 945.1 -0.5 32
2017-08-18 04:00:00 23.9 4 Sudoeste 8 Sudoeste 0 945.3 -0.3 30
2017-08-18 03:00:00 24.7 4 Sudeste 8 Sudeste 0 945.5 0 28
2017-08-18 02:00:00 27 3 Sudoeste 10 Sudoeste 0 945.6 0.3 25
2017-08-18 01:00:00 28 4 Oeste 11 Oeste 0 945.6 0.8 23
2017-08-18 00:00:00 29.3 7 Noroeste 14 Oeste 0 945.5 1.1 21
2017-08-17 23:00:00 30.6 7 Oeste 17 Oeste 0 945.3 1 19
2017-08-17 22:00:00 32.2 8 Noroeste 14 Noroeste 0 944.8 0.3 17
2017-08-17 21:00:00 34.4 6 Noroeste 18 Oeste 0 944.4 -0.3 15
2017-08-17 20:00:00 35.8 6 Oeste 18 Noroeste 0 944.3 -0.8 13
2017-08-17 19:00:00 37.3 7 Oeste 22 Sudoeste 0 944.5 -1.2 13
2017-08-17 18:00:00 37.8 9 Noroeste 24 Noroeste 0 944.7 -1.7 12
2017-08-17 17:00:00 38.2 6 Sur 19 Sur 0 945.1 -1.7 11
2017-08-17 16:00:00 38.1 4 Sur 16 Oeste 0 945.7 -1.8 12
2017-08-17 15:00:00 37.1 8 Sudoeste 17 Oeste 0 946.4 -1.6 12
2017-08-17 14:00:00 35.5 5 Norte 14 Noroeste 0 946.8 -1.2 14
2017-08-17 13:00:00 33.4 4 Oeste 10 Noroeste 0 947.5 -0.3 20
2017-08-17 12:00:00 31 3 Este 15 Este 0 948 0.4 25
2017-08-17 11:00:00 28 6 Este 12 Este 0 948 0.7 28
2017-08-17 10:00:00 23.7 4 Norte 9 Nordeste 0 947.8 0.9 31
2017-08-17 09:00:00 19.4 2 Este 8 Nordeste 0 947.6 0.8 38
2017-08-17 08:00:00 18.6 4 Nordeste 9 Nordeste 0 947.3 0.7 37
2017-08-17 07:00:00 18.9 0 Calma 8 Nordeste 0 946.9 0.3 38
2017-08-17 06:00:00 20 0 Calma 3 Este 0 946.8 0 36
2017-08-17 05:00:00 21.3 0 Calma 4 Sur 0 946.6 -0.4 37
2017-08-17 04:00:00 22.2 0 Calma 4 Oeste 0 946.6 -0.6 35
2017-08-17 03:00:00 23.8 2 Oeste 6 Sudoeste 0 946.8 -0.4 32
2017-08-17 02:00:00 25.5 3 Sudoeste 8 Oeste 0 947 0.1 28
2017-08-17 01:00:00 26.9 3 Oeste 9 Oeste 0 947.2 0.7 26
2017-08-17 00:00:00 28 4 Oeste 13 Oeste 0 947.2 1.2 23
2017-08-16 23:00:00 29 5 Oeste 13 Sudoeste 0 946.9 1.1 19
2017-08-16 22:00:00 30.5 5 Oeste 14 Oeste 0 946.5 0.6 14
2017-08-16 21:00:00 32.4 9 Noroeste 21 Oeste 0 946 0 12
2017-08-16 20:00:00 33.8 9 Noroeste 21 Noroeste 0 945.8 -0.3 11
2017-08-16 19:00:00 35.3 10 Noroeste 24 Sudoeste 0 945.9 -0.5 9
2017-08-16 18:00:00 35.6 12 Oeste 26 Sudoeste 0 946 -0.8 7
2017-08-16 17:00:00 36.3 11 Sudoeste 27 Sudoeste 0 946.1 -1 6
2017-08-16 16:00:00 35.9 13 Oeste 33 Sudoeste 0 946.4 -1.4 12
2017-08-16 15:00:00 35.6 14 Oeste 30 Noroeste 0 946.8 -1.4 13
2017-08-16 14:00:00 34.9 12 Oeste 27 Noroeste 0 947.1 -1.1 14
2017-08-16 13:00:00 33.7 7 Sudoeste 19 Sudoeste 0 947.8 -0.3 16
2017-08-16 12:00:00 31.6 5 Sudoeste 13 Oeste 0 948.2 0.1 19
2017-08-16 11:00:00 29.2 6 Oeste 13 Sudoeste 0 948.2 0.6 22
2017-08-16 10:00:00 26.2 5 Oeste 11 Sudoeste 0 948.1 0.8 28
2017-08-16 09:00:00 22.5 3 Sudoeste 12 Sudoeste 0 948.1 1.1 32
2017-08-16 08:00:00 21.6 6 Sudoeste 12 Oeste 0 947.6 0.5 32
2017-08-16 07:00:00 21.8 4 Sudoeste 10 Sudoeste 0 947.3 0.1 32
2017-08-16 06:00:00 23 7 Oeste 15 Oeste 0 947 -0.2 29
2017-08-16 05:00:00 23.4 8 Sudoeste 13 Oeste 0 947.1 0 29
2017-08-16 04:00:00 23.6 6 Sudoeste 11 Sudoeste 0 947.2 -0.1 30
2017-08-16 03:00:00 24.6 4 Sudoeste 9 Oeste 0 947.2 0.1 29
2017-08-16 02:00:00 26 4 Oeste 13 Oeste 0 947.1 0.4 26
2017-08-16 01:00:00 26.9 6 Noroeste 19 Oeste 0 947.3 1.2 25
2017-08-16 00:00:00 27.5 5 Oeste 17 Oeste 0 947.1 1.6 23
2017-08-15 23:00:00 28.9 7 Noroeste 19 Noroeste 0 946.7 1.7 18
2017-08-15 22:00:00 30.5 9 Noroeste 19 Noroeste 0 946.1 1.5 16
2017-08-15 21:00:00 32.4 11 Noroeste 28 Oeste 0 945.5 1 17
2017-08-15 20:00:00 34 12 Oeste 28 Oeste 0 945 0.2 17
2017-08-15 19:00:00 35.2 14 Noroeste 37 Noroeste 0 944.6 -0.4 15
2017-08-15 18:00:00 35.6 10 Oeste 30 Noroeste 0 944.5 -1 17
2017-08-15 17:00:00 36 9 Oeste 28 Noroeste 0 944.8 -1.1 18
2017-08-15 16:00:00 36 9 Oeste 28 Sudoeste 0 945 -1.2 20
2017-08-15 15:00:00 35.9 9 Oeste 24 Oeste 0 945.5 -1.1 20
2017-08-15 14:00:00 35.1 8 Oeste 25 Noroeste 0 945.9 -0.7 19
2017-08-15 13:00:00 33.9 7 Sudoeste 17 Oeste 0 946.2 -0.2 23
2017-08-15 12:00:00 31.7 8 Noroeste 17 Oeste 0 946.6 0.4 26
2017-08-15 11:00:00 29.1 5 Oeste 14 Oeste 0 946.6 0.8 32
2017-08-15 10:00:00 25.8 3 Noroeste 6 Oeste 0 946.4 1.2 42
2017-08-15 09:00:00 21.7 0 Calma 4 Este 0 946.2 1.4 50
2017-08-15 08:00:00 20.7 2 Sudeste 4 Nordeste 0 945.8 1.3 52
2017-08-15 07:00:00 21.3 0 Calma 7 Noroeste 0 945.2 0.7 49
2017-08-15 06:00:00 22 5 Norte 8 Norte 0 944.8 0.5 48
2017-08-15 05:00:00 22.9 0 Calma 9 Norte 0 944.5 0.4 47
2017-08-15 04:00:00 24.4 3 Nordeste 9 Sudeste 0 944.5 0.4 44
2017-08-15 03:00:00 24.7 0 Calma 5 Nordeste 0 944.3 0.2 44
2017-08-15 02:00:00 26 0 Calma 7 Nordeste 0 944.1 0.5 38
2017-08-15 01:00:00 27.9 2 Noroeste 13 Oeste 0 944.1 1.3 34
2017-08-15 00:00:00 28.6 4 Sudoeste 10 Sudoeste 0 944.1 2.2 32
2017-08-14 23:00:00 30.5 5 Sudoeste 13 Sudoeste 0 943.6 2 28
2017-08-14 22:00:00 31.2 6 Sur 12 Sur 0 942.8 1.4 27
2017-08-14 21:00:00 32.4 4 Este 10 Nordeste 0 941.9 0.1 25
2017-08-14 20:00:00 34.3 4 Este 19 Noroeste 0 941.6 -0.6 24
2017-08-14 19:00:00 35.9 5 Norte 20 Norte 0 941.4 -1.3 21
2017-08-14 18:00:00 36 7 Noroeste 15 Este 0 941.8 -1.5 21
2017-08-14 17:00:00 36 5 Norte 21 Este 0 942.2 -1.7 22
2017-08-14 16:00:00 36 4 Norte 16 Este 0 942.7 -1.7 22
2017-08-14 15:00:00 34.5 4 Nordeste 21 Este 0 943.3 -1.3 23
2017-08-14 14:00:00 33.4 8 Nordeste 17 Este 0 943.9 -0.7 25
2017-08-14 13:00:00 32.3 6 Este 15 Este 0 944.4 -0.2 29
2017-08-14 12:00:00 30.1 7 Este 14 Este 0 944.6 -0.2 32
2017-08-14 11:00:00 27.1 6 Nordeste 12 Nordeste 0 944.6 0.1 45
2017-08-14 10:00:00 23.5 4 Norte 12 Nordeste 0 944.6 0.6 55
2017-08-14 09:00:00 20.4 5 Nordeste 12 Nordeste 0 944.8 0.8 67
2017-08-14 08:00:00 19 3 Nordeste 8 Nordeste 0 944.5 0.8 68
2017-08-14 07:00:00 19.3 4 Nordeste 8 Norte 0 944 0.4 59
2017-08-14 06:00:00 20.2 3 Nordeste 8 Norte 0 944 0.4 54
2017-08-14 05:00:00 21 5 Nordeste 11 Este 0 943.7 -0.1 50
2017-08-14 04:00:00 21.5 5 Nordeste 9 Nordeste 0 943.6 0 47
2017-08-14 03:00:00 22.3 7 Nordeste 15 Nordeste 0 943.6 0.2 44
2017-08-14 02:00:00 24 6 Norte 14 Noroeste 0 943.8 0.7 40
2017-08-14 01:00:00 25.7 3 Noroeste 9 Este 0 943.6 1.1 35
2017-08-14 00:00:00 27.5 6 Sudeste 17 Nordeste 0 943.4 1.1 31
2017-08-13 23:00:00 28.6 10 Este 18 Este 0 943.1 0.9 26
2017-08-13 22:00:00 29.7 5 Este 9 Nordeste 0 942.5 0 20
2017-08-13 21:00:00 32 6 Este 13 Norte 0 942.3 -0.5 17
2017-08-13 20:00:00 33.8 5 Norte 20 Noroeste 0 942.2 -1.1 15
2017-08-13 19:00:00 35.3 6 Nordeste 18 Nordeste 0 942.5 -1.4 14
2017-08-13 18:00:00 35.4 6 Este 15 Sudeste 0 942.8 -1.7 14
2017-08-13 17:00:00 35.3 4 Oeste 17 Sudeste 0 943.3 -1.8 14
2017-08-13 16:00:00 35.4 6 Este 19 Este 0 943.9 -1.9 14
2017-08-13 15:00:00 34.7 4 Sudeste 17 Este 0 944.5 -1.7 18
2017-08-13 14:00:00 33.3 8 Nordeste 19 Nordeste 0 945.1 -1.4 23
2017-08-13 13:00:00 31.1 5 Este 15 Este 0 945.8 -0.7 28
2017-08-13 12:00:00 28.7 5 Este 13 Este 0 946.2 -0.1 34
2017-08-13 11:00:00 25.7 7 Este 13 Este 0 946.5 0.5 42
2017-08-13 10:00:00 22.6 7 Nordeste 14 Este 0 946.5 0.8 50
2017-08-13 09:00:00 19.5 9 Nordeste 15 Este 0 946.3 0.7 58
2017-08-13 08:00:00 17.2 6 Este 13 Nordeste 0 946 0.4 64
2017-08-13 07:00:00 17.3 7 Este 13 Este 0 945.7 0 62
2017-08-13 06:00:00 17.7 9 Nordeste 15 Nordeste 0 945.6 -0.2 58
2017-08-13 05:00:00 18.8 8 Nordeste 16 Nordeste 0 945.6 -0.5 51
2017-08-13 04:00:00 19.7 4 Nordeste 9 Nordeste 0 945.7 -0.5 41
2017-08-13 03:00:00 20.5 0 Calma 8 Norte 0 945.8 -0.4 33
2017-08-13 02:00:00 21.8 2 Norte 5 Norte 0 946.1 -0.2 29
2017-08-13 01:00:00 23 3 Norte 9 Este 0 946.2 0.2 25
2017-08-13 00:00:00 24 5 Este 8 Este 0 946.2 0.4 24
2017-08-12 23:00:00 25.7 5 Nordeste 9 Este 0 946.3 0.5 21
2017-08-12 22:00:00 27.9 5 Este 10 Este 0 946 0 19
2017-08-12 21:00:00 30.2 6 Nordeste 15 Nordeste 0 945.8 -0.5 17
2017-08-12 20:00:00 31.8 6 Nordeste 19 Nordeste 0 945.8 -0.8 17
2017-08-12 19:00:00 33.2 5 Norte 17 Norte 0 946 -1.2 17
2017-08-12 18:00:00 33.3 10 Nordeste 22 Nordeste 0 946.3 -1.5 17
2017-08-12 17:00:00 33.6 9 Sudeste 21 Nordeste 0 946.6 -1.7 16
2017-08-12 16:00:00 33.6 8 Nordeste 18 Este 0 947.2 -1.6 15
2017-08-12 15:00:00 32.4 8 Nordeste 21 Este 0 947.8 -1.3 14
2017-08-12 14:00:00 31.1 9 Nordeste 21 Nordeste 0 948.3 -0.9 21
2017-08-12 13:00:00 28.7 13 Este 25 Nordeste 0 948.8 -0.4 34
2017-08-12 12:00:00 26.1 14 Nordeste 26 Nordeste 0 949.1 0.2 46
2017-08-12 11:00:00 23.3 13 Este 24 Nordeste 0 949.2 0.7 58
2017-08-12 10:00:00 20.9 13 Este 28 Este 0 949.2 1.2 67
2017-08-12 09:00:00 18.6 13 Nordeste 24 Nordeste 0 948.9 0.8 76
2017-08-12 08:00:00 16.8 10 Este 23 Este 0 948.5 0.5 73
2017-08-12 07:00:00 16.4 6 Nordeste 14 Nordeste 0 948 0.2 82
2017-08-12 06:00:00 16.9 6 Nordeste 13 Nordeste 0 948.1 0.4 74
2017-08-12 05:00:00 17.2 7 Nordeste 17 Nordeste 0 948 0.1 59
2017-08-12 04:00:00 18.3 8 Nordeste 15 Este 0 947.8 -0.2 26
2017-08-12 03:00:00 18.8 3 Este 5 Este 0 947.7 -0.1 25
2017-08-12 02:00:00 19.6 3 Sudeste 5 Sudeste 0 947.9 0 24
2017-08-12 01:00:00 20.6 2 Nordeste 7 Nordeste 0 948 0.7 22
2017-08-12 00:00:00 22.4 3 Norte 11 Nordeste 0 947.8 1.2 18
2017-08-11 23:00:00 23.9 5 Nordeste 16 Nordeste 0 947.9 1.4 15
2017-08-11 22:00:00 26.3 8 Este 15 Este 0 947.3 0.7 12
2017-08-11 21:00:00 28.3 6 Este 14 Nordeste 0 946.6 -0.4 13
2017-08-11 20:00:00 29.8 8 Este 19 Nordeste 0 946.5 -1 14
2017-08-11 19:00:00 31.3 9 Este 19 Este 0 946.6 -1.4 16
2017-08-11 18:00:00 31 9 Este 20 Este 0 947 -1.5 16
2017-08-11 17:00:00 30.9 5 Noroeste 23 Nordeste 0 947.5 -1.5 18
2017-08-11 16:00:00 30.4 6 Este 22 Este 0 948 -1.6 21
2017-08-11 15:00:00 29.7 8 Este 23 Este 0 948.5 -1.5 20
2017-08-11 14:00:00 29.1 5 Este 23 Nordeste 0 949 -1 21
2017-08-11 13:00:00 27.1 12 Nordeste 26 Nordeste 0 949.6 -0.3 31
2017-08-11 12:00:00 25.1 12 Nordeste 28 Nordeste 0 950 0 40
2017-08-11 11:00:00 23.2 12 Este 26 Nordeste 0 950 0.3 49
2017-08-11 10:00:00 20.9 11 Este 26 Nordeste 0 949.9 0.5 51
2017-08-11 09:00:00 18 6 Nordeste 12 Nordeste 0 950 0.7 51
2017-08-11 08:00:00 14.8 3 Nordeste 11 Nordeste 0 949.7 0.5 57
2017-08-11 07:00:00 15.4 5 Nordeste 12 Este 0 949.4 0.3 61
2017-08-11 06:00:00 15.4 5 Nordeste 10 Nordeste 0 949.3 0.2 48
2017-08-11 05:00:00 15.9 4 Norte 15 Nordeste 0 949.2 -0.3 38
2017-08-11 04:00:00 17 5 Nordeste 14 Este 0 949.1 -0.6 31
2017-08-11 03:00:00 17.8 3 Nordeste 9 Norte 0 949.1 -0.6 29
2017-08-11 02:00:00 18.6 3 Nordeste 7 Nordeste 0 949.5 0.1 28
2017-08-11 01:00:00 19.6 4 Norte 9 Norte 0 949.7 1.1 26
2017-08-11 00:00:00 20.6 5 Norte 15 Nordeste 0 949.7 1.4 24
2017-08-10 23:00:00 21.8 5 Nordeste 10 Nordeste 0 949.4 1.3 21
2017-08-10 22:00:00 23.5 5 Nordeste 12 Este 0 948.6 0.4 16
2017-08-10 21:00:00 26 5 Nordeste 14 Nordeste 0 948.3 0.1 12
2017-08-10 20:00:00 27.8 7 Nordeste 22 Norte 0 948.1 -0.5 9
2017-08-10 19:00:00 29.6 8 Nordeste 24 Nordeste 0 948.2 -0.8 10
2017-08-10 18:00:00 29.7 4 Noroeste 22 Nordeste 0 948.2 -1.4 13
2017-08-10 17:00:00 29.3 10 Nordeste 22 Nordeste 0 948.6 -1.4 18
2017-08-10 16:00:00 28.4 10 Este 23 Nordeste 0 949 -1.5 21
2017-08-10 15:00:00 27 12 Nordeste 28 Este 0 949.6 -1 25
2017-08-10 14:00:00 25.5 10 Nordeste 31 Nordeste 0 950 -0.3 29
2017-08-10 13:00:00 24.2 13 Nordeste 32 Nordeste 0 950.5 0.3 35
2017-08-10 12:00:00 22.2 15 Nordeste 32 Nordeste 0 950.6 0.8 38
2017-08-10 11:00:00 20.3 12 Nordeste 30 Nordeste 0 950.3 1 34
2017-08-10 10:00:00 17.8 12 Norte 28 Norte 0 950.2 1.7 38
2017-08-10 09:00:00 16 13 Nordeste 31 Nordeste 0 949.8 1.8 43
2017-08-10 08:00:00 14.6 10 Norte 24 Norte 0 949.3 1.5 49
2017-08-10 07:00:00 15 8 Norte 26 Norte 0 948.5 0.6 49
2017-08-10 06:00:00 15.3 9 Nordeste 24 Nordeste 0 948 0.3 49
2017-08-10 05:00:00 15.9 8 Nordeste 17 Norte 0 947.8 0.6 48
2017-08-10 04:00:00 17.4 11 Nordeste 39 Nordeste 0 947.9 1.1 45
2017-08-10 03:00:00 18.5 11 Nordeste 33 Norte 0 947.7 1.9 43
2017-08-10 02:00:00 19.8 13 Norte 33 Norte 0 947.2 2.4 40
2017-08-10 01:00:00 20.7 18 Nordeste 36 Nordeste 0 946.8 3.5 38
2017-08-10 00:00:00 22.4 14 Nordeste 40 Nordeste 0 945.8 3.3 35
2017-08-09 23:00:00 25.4 15 Norte 36 Norte 0 944.8 2.7 29
2017-08-09 22:00:00 26.6 9 Noroeste 17 Oeste 0 943.3 1.1 20
2017-08-09 21:00:00 28.2 9 Oeste 22 Oeste 0 942.5 0.2 18
2017-08-09 20:00:00 29.5 10 Oeste 23 Oeste 0 942.1 -0.3 14
2017-08-09 19:00:00 31 10 Oeste 24 Noroeste 0 942.2 -0.5 13
2017-08-09 18:00:00 31.5 10 Noroeste 29 Oeste 0 942.3 -0.8 13
2017-08-09 17:00:00 31.2 14 Oeste 32 Sudoeste 0 942.4 -0.8 12
2017-08-09 16:00:00 31.4 11 Sudoeste 31 Sudoeste 0 942.7 -0.7 13
2017-08-09 15:00:00 31 13 Noroeste 28 Sudoeste 0 943.1 -0.3 14
2017-08-09 14:00:00 30.1 12 Oeste 32 Oeste 0 943.2 -0.1 16
2017-08-09 13:00:00 29.3 14 Noroeste 32 Oeste 0 943.4 0 17
2017-08-09 12:00:00 28.3 12 Noroeste 28 Norte 0 943.4 0.2 19
2017-08-09 11:00:00 26.3 7 Oeste 15 Sudoeste 0 943.3 0.3 23
2017-08-09 10:00:00 23.8 6 Oeste 15 Oeste 0 943.4 0.5 27
2017-08-09 09:00:00 20.7 4 Oeste 9 Oeste 0 943.2 0.6 29
2017-08-09 08:00:00 16.5 3 Sudoeste 6 Sudoeste 0 943 0.3 34
2017-08-09 07:00:00 17.3 5 Sudoeste 9 Sudoeste 0 942.9 0 30
2017-08-09 06:00:00 18.5 3 Oeste 9 Sudoeste 0 942.6 -0.5 27
2017-08-09 05:00:00 20.1 5 Sudoeste 8 Sudoeste 0 942.7 -0.6 23
2017-08-09 04:00:00 21.1 4 Oeste 13 Oeste 0 942.9 -0.5 21
2017-08-09 03:00:00 21.8 7 Oeste 13 Oeste 0 943.1 -0.7 20
2017-08-09 02:00:00 22.5 6 Sudoeste 13 Sudoeste 0 943.3 -0.3 18
2017-08-09 01:00:00 23.7 6 Sudoeste 14 Sudoeste 0 943.4 0.2 17
2017-08-09 00:00:00 24.6 8 Oeste 18 Oeste 0 943.8 1.1 15
2017-08-08 23:00:00 25.9 9 Oeste 17 Sudoeste 0 943.6 1.2 12
2017-08-08 22:00:00 27.3 10 Oeste 23 Sudoeste 0 943.2 0.7 12
2017-08-08 21:00:00 28.9 13 Sudoeste 23 Oeste 0 942.7 0.2 12
2017-08-08 20:00:00 30.5 12 Oeste 24 Oeste 0 942.4 -0.2 14
2017-08-08 19:00:00 32.1 9 Oeste 28 Sudoeste 0 942.5 -0.3 13
2017-08-08 18:00:00 32.2 10 Noroeste 28 Oeste 0 942.5 -0.7 14
2017-08-08 17:00:00 32.6 9 Oeste 24 Sudoeste 0 942.6 -1.2 13
2017-08-08 16:00:00 32.1 13 Noroeste 26 Sudoeste 0 942.8 -1.3 12
2017-08-08 15:00:00 31.3 8 Sudoeste 23 Noroeste 0 943.2 -1 13
2017-08-08 14:00:00 30 6 Sur 19 Oeste 0 943.8 -0.2 17
2017-08-08 13:00:00 28.4 7 Oeste 17 Oeste 0 944.1 0.3 20
2017-08-08 12:00:00 27.2 4 Oeste 14 Sudoeste 0 944.2 0.6 20
2017-08-08 11:00:00 25.1 4 Oeste 12 Noroeste 0 944 1.1 25
2017-08-08 10:00:00 23.2 5 Oeste 14 Oeste 0 943.8 1.4 32
2017-08-08 09:00:00 20.9 4 Sudoeste 22 Oeste 0 943.6 1.3 34
2017-08-08 08:00:00 19.3 7 Oeste 19 Sudoeste 0 942.9 0.7 36
2017-08-08 07:00:00 20.6 10 Sudoeste 17 Sudoeste 0 942.4 0.2 31
2017-08-08 06:00:00 21.8 5 Sudoeste 15 Sudoeste 0 942.3 0.1 27
2017-08-08 05:00:00 23.1 7 Oeste 19 Oeste 0 942.2 -0.4 24
2017-08-08 04:00:00 24.4 5 Oeste 22 Oeste 0 942.2 -0.6 22
2017-08-08 03:00:00 25.5 9 Oeste 22 Noroeste 0 942.2 -0.4 20
2017-08-08 02:00:00 26.5 6 Noroeste 19 Oeste 0 942.6 0.2 17
2017-08-08 01:00:00 27.5 8 Oeste 19 Sudoeste 0 942.8 1.2 14
2017-08-08 00:00:00 28.5 10 Sudoeste 21 Oeste 0 942.6 1.6 10
2017-08-07 23:00:00 29.6 12 Oeste 21 Sudoeste 0 942.4 1.8 9
2017-08-07 22:00:00 31 7 Oeste 24 Noroeste 0 941.6 0.8 9
2017-08-07 21:00:00 33.2 12 Noroeste 33 Noroeste 0 941 -0.3 7
2017-08-07 20:00:00 36 14 Noroeste 33 Oeste 0 940.6 -1 7
2017-08-07 19:00:00 37.5 10 Oeste 38 Oeste 0 940.8 -1.1 7
2017-08-07 18:00:00 38.2 13 Oeste 36 Oeste 0 941.3 -1.2 8
2017-08-07 17:00:00 38.3 19 Sudoeste 39 Sudoeste 0 941.6 -1.6 9
2017-08-07 16:00:00 38.1 18 Oeste 37 Oeste 0 941.9 -1.9 10
2017-08-07 15:00:00 37.5 13 Oeste 30 Sudoeste 0 942.5 -1.7 9
2017-08-07 14:00:00 36 12 Oeste 28 Oeste 0 943.2 -1.2 10
2017-08-07 13:00:00 34.5 12 Oeste 24 Oeste 0 943.8 -0.9 14
2017-08-07 12:00:00 32.9 11 Oeste 24 Oeste 0 944.2 -0.3 15
2017-08-07 11:00:00 30.7 8 Sudoeste 17 Sudoeste 0 944.4 0.7 22
2017-08-07 10:00:00 28 7 Oeste 16 Noroeste 0 944.7 1.1 23
2017-08-07 09:00:00 24.4 2 Noroeste 8 Oeste 0 944.5 0.9 24
2017-08-07 08:00:00 24.1 6 Sudoeste 11 Sur 0 943.7 -0.3 21
2017-08-07 07:00:00 23.9 6 Sur 11 Sur 0 943.6 -0.2 18
2017-08-07 06:00:00 24.5 4 Sur 9 Oeste 0 943.6 -0.4 20
2017-08-07 05:00:00 25.9 5 Sudoeste 14 Sudoeste 0 944 0.3 17
2017-08-07 04:00:00 24.9 3 Oeste 13 Sudoeste 0 943.8 0 18
2017-08-07 03:00:00 25.5 4 Oeste 13 Sudoeste 0 944 0.2 15
2017-08-07 02:00:00 27.7 8 Oeste 16 Oeste 0 943.7 0.3 13
2017-08-07 01:00:00 28.1 7 Sudoeste 15 Sudoeste 0 943.8 0.9 14
2017-08-07 00:00:00 28.8 5 Sudoeste 17 Oeste 0 943.8 1.5 15
2017-08-06 23:00:00 30.7 9 Noroeste 18 Noroeste 0 943.4 1.4 15
2017-08-06 22:00:00 32.7 10 Oeste 17 Oeste 0 942.9 0.8 15
2017-08-06 21:00:00 34.9 11 Noroeste 23 Oeste 0 942.3 0 13
2017-08-06 20:00:00 36.4 11 Oeste 28 Sudoeste 0 942 -0.6 11
2017-08-06 19:00:00 38 10 Oeste 30 Sudoeste 0 942.1 -1 9
2017-08-06 18:00:00 38.2 13 Oeste 29 Noroeste 0 942.3 -1.1 9
2017-08-06 17:00:00 38.5 10 Oeste 30 Oeste 0 942.6 -1.2 9
2017-08-06 16:00:00 38.2 4 Oeste 26 Sudoeste 0 943.1 -1.1 9
2017-08-06 15:00:00 37.8 10 Oeste 28 Oeste 0 943.4 -1.2 8
2017-08-06 14:00:00 36.5 10 Sudoeste 22 Oeste 0 943.8 -0.7 9
2017-08-06 13:00:00 35.1 10 Oeste 23 Oeste 0 944.2 -0.2 12
2017-08-06 12:00:00 33.3 10 Sudoeste 18 Oeste 0 944.6 0.6 17
2017-08-06 11:00:00 30.6 5 Oeste 17 Sudoeste 0 944.5 0.9 25
2017-08-06 10:00:00 28.3 8 Oeste 19 Noroeste 0 944.4 1.4 30
2017-08-06 09:00:00 25.8 6 Oeste 17 Noroeste 0 944 1.1 33
2017-08-06 08:00:00 22.3 0 Calma 10 Sudoeste 0 943.6 0.6 38
2017-08-06 07:00:00 24.7 4 Oeste 14 Sudoeste 0 943 0 31
2017-08-06 06:00:00 25.3 7 Sudoeste 14 Sudoeste 0 942.9 -0.2 30
2017-08-06 05:00:00 26.4 9 Sudoeste 19 Sudoeste 0 943 -0.1 29
2017-08-06 04:00:00 27.1 8 Oeste 18 Sudoeste 0 943 -0.1 27
2017-08-06 03:00:00 28 7 Oeste 19 Oeste 0 943.1 0.2 26
2017-08-06 02:00:00 29.2 9 Oeste 19 Oeste 0 943.1 0.5 26
2017-08-06 01:00:00 30.2 8 Oeste 18 Oeste 0 943.1 1.3 23
2017-08-06 00:00:00 31.3 6 Oeste 15 Noroeste 0 942.9 1.4 22
2017-08-05 23:00:00 32.6 9 Noroeste 18 Noroeste 0 942.6 1.6 21
2017-08-05 22:00:00 34.2 10 Noroeste 26 Oeste 0 941.8 1.1 19
2017-08-05 21:00:00 36.2 13 Oeste 38 Noroeste 0 941.5 0.5 18
2017-08-05 20:00:00 38 12 Oeste 32 Oeste 0 941 -0.4 17
2017-08-05 19:00:00 39.5 12 Oeste 33 Noroeste 0 940.7 -1.3 15
2017-08-05 18:00:00 39.7 13 Oeste 32 Noroeste 0 941 -1.7 15
2017-08-05 17:00:00 39.8 10 Oeste 33 Sudoeste 0 941.4 -1.8 17
2017-08-05 16:00:00 40.1 7 Oeste 26 Oeste 0 942 -1.9 16
2017-08-05 15:00:00 39.8 10 Noroeste 31 Noroeste 0 942.7 -1.6 17
2017-08-05 14:00:00 39.4 8 Noroeste 23 Noroeste 0 943.2 -1.2 17
2017-08-05 13:00:00 38.3 4 Oeste 14 Sur 0 943.9 -0.5 20
2017-08-05 12:00:00 36.5 6 Sur 15 Sudeste 0 944.3 0 21
2017-08-05 11:00:00 33.9 6 Sudeste 11 Sudeste 0 944.4 0.5 25
2017-08-05 10:00:00 30.5 5 Nordeste 9 Nordeste 0 944.4 0.7 29
2017-08-05 09:00:00 27.2 3 Noroeste 6 Noroeste 0 944.3 0.9 35
2017-08-05 08:00:00 24.5 5 Noroeste 9 Noroeste 0 943.9 0.6 39
2017-08-05 07:00:00 25.1 4 Sudeste 9 Este 0 943.7 0.1 37
2017-08-05 06:00:00 26.3 3 Este 9 Noroeste 0 943.4 -0.4 35
2017-08-05 05:00:00 26.5 6 Noroeste 9 Noroeste 0 943.3 -0.5 34
2017-08-05 04:00:00 27.2 3 Noroeste 8 Noroeste 0 943.6 -0.1 35
2017-08-05 03:00:00 27.8 3 Noroeste 6 Noroeste 0 943.8 0 34
2017-08-05 02:00:00 29.6 4 Noroeste 9 Sudoeste 0 943.8 0.1 30
2017-08-05 01:00:00 31.2 4 Norte 23 Noroeste 0 943.7 0.8 27
2017-08-05 00:00:00 32.4 12 Noroeste 22 Noroeste 0 943.8 1.3 23
2017-08-04 23:00:00 33.7 7 Noroeste 17 Noroeste 0 943.7 1.3 22
2017-08-04 22:00:00 34.2 4 Sur 12 Sudeste 0 942.9 0.3 22
2017-08-04 21:00:00 36.7 8 Norte 12 Noroeste 0 942.5 -0.4 18
2017-08-04 20:00:00 38.3 3 Sur 28 Noroeste 0 942.4 -1.1 16
2017-08-04 19:00:00 39.5 6 Sudeste 12 Sudeste 0 942.6 -1.5 15
2017-08-04 18:00:00 39.4 6 Oeste 18 Oeste 0 942.9 -1.8 16
2017-08-04 17:00:00 39.5 5 Sudeste 18 Este 0 943.5 -1.9 16
2017-08-04 16:00:00 38.7 5 Norte 24 Sudeste 0 944.1 -1.9 18
2017-08-04 15:00:00 38.4 6 Sur 15 Sur 0 944.7 -1.7 17
2017-08-04 14:00:00 37.1 5 Nordeste 14 Nordeste 0 945.4 -1.1 19
2017-08-04 13:00:00 35.3 6 Noroeste 12 Noroeste 0 946 -0.4 21
2017-08-04 12:00:00 35.1 4 Oeste 9 Sudeste 0 946.4 0.3 22
2017-08-04 11:00:00 33.3 4 Sudeste 7 Sudeste 0 946.5 0.5 26
2017-08-04 10:00:00 30.1 3 Norte 6 Nordeste 0 946.4 0.7 30
2017-08-04 09:00:00 25.4 0 Calma 6 Sudoeste 0 946.1 0.6 32
2017-08-04 08:00:00 21.3 3 Sudoeste 7 Oeste 0 946 0.5 35
2017-08-04 07:00:00 21.9 2 Oeste 4 Este 0 945.7 0.4 33
2017-08-04 06:00:00 22.9 0 Calma 10 Oeste 0 945.5 0.2 31
2017-08-04 05:00:00 23 4 Noroeste 7 Sudoeste 0 945.5 0 28
2017-08-04 04:00:00 24.3 3 Sudoeste 5 Oeste 0 945.3 -0.5 27
2017-08-04 03:00:00 25.8 2 Oeste 6 Noroeste 0 945.3 -0.6 25
2017-08-04 02:00:00 26.7 3 Oeste 9 Oeste 0 945.5 -0.1 21
2017-08-04 01:00:00 27.6 3 Oeste 11 Noroeste 0 945.8 0.7 19
2017-08-04 00:00:00 29.4 7 Noroeste 15 Noroeste 0 945.9 1.3 16
2017-08-03 23:00:00 30.8 5 Oeste 17 Oeste 0 945.6 1.3 14
2017-08-03 22:00:00 32.6 8 Oeste 16 Oeste 0 945.1 0.9 12
2017-08-03 21:00:00 34.7 6 Oeste 22 Oeste 0 944.6 0.1 11
2017-08-03 20:00:00 36.5 10 Noroeste 28 Noroeste 0 944.3 -0.8 11
2017-08-03 19:00:00 38.1 11 Noroeste 22 Noroeste 0 944.2 -1.4 10
2017-08-03 18:00:00 38.3 9 Sudoeste 18 Oeste 0 944.5 -1.6 9
2017-08-03 17:00:00 38 10 Oeste 21 Noroeste 0 945.1 -1.5 10
2017-08-03 16:00:00 37.3 9 Noroeste 21 Oeste 0 945.6 -1.7 11
2017-08-03 15:00:00 36.4 5 Sudeste 16 Oeste 0 946.1 -1.5 12
2017-08-03 14:00:00 35.7 4 Sudeste 14 Sudoeste 0 946.6 -1.2 15
2017-08-03 13:00:00 34.6 4 Este 13 Sudeste 0 947.3 -0.6 20
2017-08-03 12:00:00 32.5 5 Sudeste 9 Sudeste 0 947.6 0.1 23
2017-08-03 11:00:00 30 4 Sudeste 9 Este 0 947.8 0.7 28
2017-08-03 10:00:00 27 5 Este 9 Este 0 947.9 1 35
2017-08-03 09:00:00 23.1 2 Este 4 Este 0 947.5 0.9 36
2017-08-03 08:00:00 19.6 0 Calma 3 Norte 0 947.1 0.6 41
2017-08-03 07:00:00 20.2 3 Sudoeste 4 Sudeste 0 946.9 0.5 38
2017-08-03 06:00:00 21.1 0 Calma 4 Sudeste 0 946.6 0.1 37
2017-08-03 05:00:00 22.1 3 Sudoeste 6 Sudeste 0 946.5 -0.2 35
2017-08-03 04:00:00 24.2 4 Noroeste 11 Noroeste 0 946.4 -0.5 29
2017-08-03 03:00:00 25 6 Noroeste 10 Noroeste 0 946.5 -0.2 28
2017-08-03 02:00:00 25.7 6 Noroeste 12 Noroeste 0 946.7 0.4 27
2017-08-03 01:00:00 27.4 8 Oeste 15 Noroeste 0 946.9 1.6 24
2017-08-03 00:00:00 28.5 9 Noroeste 22 Oeste 0 946.7 2.1 22
2017-08-02 23:00:00 29.6 9 Noroeste 16 Oeste 0 946.3 2.2 18
2017-08-02 22:00:00 31.4 7 Noroeste 14 Noroeste 0 945.3 1.1 17
2017-08-02 21:00:00 33.1 8 Noroeste 21 Noroeste 0 944.6 0.2 14
2017-08-02 20:00:00 34.5 7 Oeste 20 Noroeste 0 944.1 -0.6 13
2017-08-02 19:00:00 35.6 6 Noroeste 22 Oeste 0 944.2 -0.9 12
2017-08-02 18:00:00 35.4 6 Noroeste 21 Oeste 0 944.4 -1.2 13
2017-08-02 17:00:00 35.9 6 Sur 21 Este 0 944.7 -1.2 14
2017-08-02 16:00:00 35.4 8 Sur 21 Sudoeste 0 945.1 -1.2 15
2017-08-02 15:00:00 34.6 6 Noroeste 19 Noroeste 0 945.6 -0.9 15
2017-08-02 14:00:00 34 8 Norte 15 Noroeste 0 945.9 -0.7 19
2017-08-02 13:00:00 32.7 6 Este 15 Este 0 946.3 -0.2 23
2017-08-02 12:00:00 30.8 5 Nordeste 13 Este 0 946.5 0.1 24
2017-08-02 11:00:00 28.8 5 Este 11 Sur 0 946.6 0.7 26
2017-08-02 10:00:00 25.9 4 Nordeste 9 Este 0 946.5 0.9 31
2017-08-02 09:00:00 22.4 2 Este 5 Este 0 946.4 1 40
2017-08-02 08:00:00 18.8 2 Este 5 Nordeste 0 945.9 0.5 46
2017-08-02 07:00:00 20.3 4 Sudoeste 7 Sudoeste 0 945.6 -0.1 42
2017-08-02 06:00:00 21.3 3 Sudoeste 9 Sudoeste 0 945.4 -0.6 39
2017-08-02 05:00:00 22.4 6 Oeste 10 Oeste 0 945.4 -0.4 36
2017-08-02 04:00:00 23 5 Sudoeste 11 Oeste 0 945.7 -0.1 35
2017-08-02 03:00:00 23.6 4 Oeste 12 Oeste 0 946 0.8 33
2017-08-02 02:00:00 24.4 6 Oeste 14 Oeste 0 945.8 1 32
2017-08-02 01:00:00 25.1 6 Oeste 16 Noroeste 0 945.8 2 27
2017-08-02 00:00:00 26.2 7 Noroeste 17 Noroeste 0 945.2 2.1 23
2017-08-01 23:00:00 27.3 8 Oeste 21 Oeste 0 944.8 2.3 23
2017-08-01 22:00:00 28.4 8 Noroeste 20 Oeste 0 943.8 1.3 23
2017-08-01 21:00:00 29.9 8 Oeste 19 Sudoeste 0 943.1 0.6 22
2017-08-01 20:00:00 32.2 8 Oeste 19 Noroeste 0 942.5 0.4 16
2017-08-01 19:00:00 33.9 4 Sudoeste 25 Noroeste 0 942.5 0.3 15
2017-08-01 18:00:00 33.5 12 Noroeste 24 Oeste 0 942.5 0 16
2017-08-01 17:00:00 33.6 15 Noroeste 28 Noroeste 0 942.1 -0.9 17
2017-08-01 16:00:00 34 9 Sudoeste 19 Sudoeste 0 942.2 -1.1 16
2017-08-01 15:00:00 33.4 8 Sudeste 18 Sudeste 0 942.5 -0.3 18
2017-08-01 14:00:00 32.5 5 Sur 24 Sudeste 0 943 -0.4 17
2017-08-01 13:00:00 31.3 7 Sudoeste 17 Sudoeste 0 943.3 0.3 20
2017-08-01 12:00:00 29.4 7 Noroeste 20 Sudoeste 0 942.8 0.4 23
2017-08-01 11:00:00 27.8 6 Oeste 13 Oeste 0 943.4 1.4 27
2017-08-01 10:00:00 24.9 4 Oeste 17 Oeste 0 943 1.6 33
2017-08-01 09:00:00 21.6 6 Oeste 19 Oeste 0 942.4 1.8 42
2017-08-01 08:00:00 21.3 9 Sudoeste 19 Oeste 0 942 1.2 40
2017-08-01 07:00:00 21.8 9 Oeste 15 Sudoeste 0 941.4 0.6 37
2017-08-01 06:00:00 22.5 8 Sudoeste 19 Oeste 0 940.6 0.1 34
2017-08-01 05:00:00 23.2 8 Oeste 18 Oeste 0 940.8 0.3 27
2017-08-01 04:00:00 24.1 9 Sudoeste 17 Oeste 0 940.8 0.4 22
2017-08-01 03:00:00 24.5 7 Sudoeste 13 Oeste 0 940.5 0.1 21
2017-08-01 02:00:00 24.8 3 Sudeste 14 Sudoeste 0 940.5 0.6 20
2017-08-01 01:00:00 25.6 6 Sudoeste 13 Sudoeste 0 940.4 1.4 19
2017-08-01 00:00:00 26.5 8 Oeste 17 Noroeste 0 940.4 2.6 17
2017-07-31 23:00:00 27.9 7 Oeste 19 Oeste 0 939.9 2.5 16
2017-07-31 22:00:00 29.6 15 Noroeste 33 Noroeste 0 939 1.8 15
2017-07-31 21:00:00 32 9 Noroeste 23 Noroeste 0 937.8 0.3 16
2017-07-31 20:00:00 33.6 10 Noroeste 26 Oeste 0 937.4 -0.5 16
2017-07-31 19:00:00 35 15 Noroeste 28 Noroeste 0 937.2 -1.4 14
2017-07-31 18:00:00 35.7 12 Noroeste 28 Noroeste 0 937.5 -1.7 15
2017-07-31 17:00:00 35.8 13 Oeste 33 Noroeste 0 937.9 -1.7 13
2017-07-31 16:00:00 35.7 10 Oeste 31 Oeste 0 938.6 -1.4 15
2017-07-31 15:00:00 35.5 10 Oeste 33 Sudoeste 0 939.2 -1.1 14
2017-07-31 14:00:00 34.4 8 Sur 26 Oeste 0 939.6 -0.6 16
2017-07-31 13:00:00 33.5 9 Sudoeste 24 Sudoeste 0 940 -0.2 17
2017-07-31 12:00:00 32 6 Noroeste 17 Oeste 0 940.3 0.2 18
2017-07-31 11:00:00 29.7 5 Oeste 15 Oeste 0 940.2 0.3 23
2017-07-31 10:00:00 27.4 6 Oeste 15 Oeste 0 940.2 0.7 28
2017-07-31 09:00:00 24.5 8 Oeste 15 Oeste 0 940.1 0.8 33
2017-07-31 08:00:00 22.5 9 Sudoeste 17 Oeste 0 939.9 0.4 35
2017-07-31 07:00:00 23 8 Sudoeste 16 Oeste 0 939.5 -0.1 32
2017-07-31 06:00:00 23.8 7 Sudoeste 13 Oeste 0 939.3 -0.6 30
2017-07-31 05:00:00 24.8 6 Sudoeste 13 Oeste 0 939.5 -0.7 27
2017-07-31 04:00:00 25.9 6 Sudoeste 15 Sudoeste 0 939.6 -0.5 25
2017-07-31 03:00:00 27.1 11 Sudoeste 17 Oeste 0 939.9 -0.2 23
2017-07-31 02:00:00 27.8 7 Sudoeste 14 Sudoeste 0 940.2 0.1 22
2017-07-31 01:00:00 29 7 Sudoeste 15 Oeste 0 940.1 0.6 21
2017-07-31 00:00:00 29.9 6 Oeste 14 Sudoeste 0 940.1 1 20
2017-07-30 23:00:00 31.1 3 Oeste 15 Noroeste 0 940.1 1.3 19
2017-07-30 22:00:00 32.8 8 Noroeste 23 Noroeste 0 939.5 0.5 17
2017-07-30 21:00:00 34.9 13 Noroeste 26 Noroeste 0 939.1 -0.2 17
2017-07-30 20:00:00 36.6 14 Noroeste 25 Oeste 0 938.8 -0.9 16
2017-07-30 19:00:00 38 10 Oeste 28 Noroeste 0 939 -1.5 15
2017-07-30 18:00:00 38.7 10 Oeste 35 Oeste 0 939.3 -1.7 15
2017-07-30 17:00:00 39 10 Noroeste 30 Oeste 0 939.7 -2 14
2017-07-30 16:00:00 39.1 10 Oeste 26 Sudoeste 0 940.5 -1.8 16
2017-07-30 15:00:00 38.3 9 Noroeste 24 Noroeste 0 941 -1.8 17
2017-07-30 14:00:00 37.6 9 Sudoeste 23 Sudoeste 0 941.7 -1.5 16
2017-07-30 13:00:00 36.3 8 Sudoeste 21 Sur 0 942.3 -1.1 18
2017-07-30 12:00:00 34.5 4 Sur 11 Oeste 0 942.8 -0.7 20
2017-07-30 11:00:00 31.7 3 Sudoeste 9 Oeste 0 943.2 0 25
2017-07-30 10:00:00 28.4 3 Noroeste 7 Norte 0 943.4 -0.1 30
2017-07-30 09:00:00 24.3 3 Noroeste 10 Norte 0 943.5 0.4 38
2017-07-30 08:00:00 22.9 4 Sudoeste 12 Oeste 0 943.2 -0.3 39
2017-07-30 07:00:00 22.3 2 Este 6 Sudoeste 0 943.5 -0.2 38
2017-07-30 06:00:00 23.6 2 Sudeste 7 Sudoeste 0 943.1 -0.9 36
2017-07-30 05:00:00 24.6 4 Sudeste 8 Sudoeste 0 943.5 -0.8 35
2017-07-30 04:00:00 25.6 4 Sudoeste 8 Sudoeste 0 943.7 -0.6 34
2017-07-30 03:00:00 27.2 5 Sudoeste 13 Sudoeste 0 944 -0.5 30
2017-07-30 02:00:00 27.8 6 Sudoeste 13 Sudoeste 0 944.3 -0.1 28
2017-07-30 01:00:00 28.7 8 Noroeste 13 Oeste 0 944.3 0.5 25
2017-07-30 00:00:00 29.9 5 Noroeste 13 Noroeste 0 944.5 0.9 21
2017-07-29 23:00:00 31.1 4 Oeste 13 Oeste 0 944.4 1.1 16
2017-07-29 22:00:00 32.6 6 Oeste 19 Noroeste 0 943.8 0.6 12
2017-07-29 21:00:00 34.7 8 Oeste 26 Oeste 0 943.6 0 14
2017-07-29 20:00:00 36.5 10 Noroeste 24 Noroeste 0 943.3 -0.8 13
2017-07-29 19:00:00 37.6 12 Noroeste 27 Noroeste 0 943.2 -1.3 14
2017-07-29 18:00:00 37.7 10 Oeste 32 Norte 0 943.6 -1.1 13
2017-07-29 17:00:00 38.1 10 Sudoeste 30 Sudoeste 0 944.1 -1 10
2017-07-29 16:00:00 38.1 13 Oeste 30 Oeste 0 944.5 -0.9 10
2017-07-29 15:00:00 37.3 14 Oeste 32 Oeste 0 944.7 -1.1 10
2017-07-29 14:00:00 37 13 Oeste 28 Oeste 0 945.1 -0.8 9
2017-07-29 13:00:00 35.7 9 Oeste 25 Oeste 0 945.4 -0.5 12
2017-07-29 12:00:00 34.1 8 Oeste 18 Noroeste 0 945.8 0 15
2017-07-29 11:00:00 31.6 8 Noroeste 18 Oeste 0 945.9 0.5 21
2017-07-29 10:00:00 28.4 4 Oeste 9 Oeste 0 945.9 0.7 26
2017-07-29 09:00:00 24 4 Oeste 8 Sudoeste 0 945.8 0.9 30
2017-07-29 08:00:00 20.5 0 Calma 5 Sudoeste 0 945.4 0.6 33
2017-07-29 07:00:00 22.5 3 Sudoeste 10 Sudoeste 0 945.2 0.5 27
2017-07-29 06:00:00 23 4 Sudoeste 9 Sudoeste 0 944.9 0.1 26
2017-07-29 05:00:00 23.1 4 Sudoeste 8 Sudoeste 0 944.8 0 24
2017-07-29 04:00:00 23.9 5 Sur 8 Sur 0 944.7 -0.2 22
2017-07-29 03:00:00 25.2 5 Sur 10 Oeste 0 944.8 0.1 20
2017-07-29 02:00:00 27.4 4 Oeste 13 Oeste 0 944.8 0.3 15
2017-07-29 01:00:00 27.9 7 Sudoeste 13 Sudoeste 0 944.9 1.1 12
2017-07-29 00:00:00 29.1 2 Oeste 15 Oeste 0 944.7 1.2 10
2017-07-28 23:00:00 31 10 Noroeste 17 Oeste 0 944.5 1.3 8
2017-07-28 22:00:00 32.9 9 Noroeste 20 Oeste 0 943.8 0.8 12
2017-07-28 21:00:00 35 9 Noroeste 25 Oeste 0 943.5 0.4 11
2017-07-28 20:00:00 36.9 14 Noroeste 26 Oeste 0 943.2 -0.3 9
2017-07-28 19:00:00 38.2 9 Oeste 27 Sudoeste 0 943 -0.9 8
2017-07-28 18:00:00 38.5 10 Noroeste 26 Oeste 0 943.1 -1.2 8
2017-07-28 17:00:00 38.2 9 Oeste 28 Oeste 0 943.5 -1.4 11
2017-07-28 16:00:00 38.1 9 Sudoeste 25 Noroeste 0 943.9 -1.3 13
2017-07-28 15:00:00 37.3 6 Oeste 27 Oeste 0 944.3 -0.9 16
2017-07-28 14:00:00 36.6 11 Sudoeste 28 Noroeste 0 944.9 -0.4 15
2017-07-28 13:00:00 35.8 12 Oeste 22 Oeste 0 945.2 -0.2 16
2017-07-28 12:00:00 33.7 5 Sudoeste 11 Sur 0 945.2 0.1 19
2017-07-28 11:00:00 30.8 5 Oeste 10 Noroeste 0 945.3 0.5 24
2017-07-28 10:00:00 27.5 5 Noroeste 12 Oeste 0 945.4 0.8 29
2017-07-28 09:00:00 25.6 6 Oeste 12 Oeste 0 945.1 1 29
2017-07-28 08:00:00 23.8 6 Oeste 12 Sudoeste 0 944.8 0.9 31
2017-07-28 07:00:00 23.2 4 Sur 9 Oeste 0 944.6 0.9 34
2017-07-28 06:00:00 24.7 4 Sudoeste 12 Sudoeste 0 944.1 0.5 30
2017-07-28 05:00:00 25.2 6 Sudoeste 14 Sudoeste 0 943.9 0.3 30
2017-07-28 04:00:00 25.9 4 Sudoeste 10 Noroeste 0 943.7 0.2 29
2017-07-28 03:00:00 27.8 4 Oeste 15 Oeste 0 943.6 0.4 25
2017-07-28 02:00:00 28.9 6 Oeste 17 Oeste 0 943.6 0.8 24
2017-07-28 01:00:00 29.3 6 Sudoeste 16 Sudoeste 0 943.5 1.2 24
2017-07-28 00:00:00 30 5 Sudoeste 15 Sudoeste 0 943.2 1.4 21
2017-07-27 23:00:00 31.9 7 Noroeste 19 Noroeste 0 942.8 1.3 18
2017-07-27 22:00:00 33.3 9 Noroeste 28 Noroeste 0 942.3 0.7 17
2017-07-27 21:00:00 35 6 Noroeste 22 Oeste 0 941.8 0 16
2017-07-27 20:00:00 36.6 10 Noroeste 26 Noroeste 0 941.5 -0.7 15
2017-07-27 19:00:00 37.8 9 Oeste 24 Noroeste 0 941.6 -1 14
2017-07-27 18:00:00 38.1 9 Oeste 31 Oeste 0 941.8 -1.3 14
2017-07-27 17:00:00 38.1 6 Noroeste 25 Oeste 0 942.2 -1.4 14
2017-07-27 16:00:00 37.9 10 Oeste 26 Noroeste 0 942.6 -1.4 15
2017-07-27 15:00:00 37.2 10 Oeste 27 Oeste 0 943.1 -1.3 15
2017-07-27 14:00:00 37.1 13 Noroeste 28 Oeste 0 943.6 -0.9 16
2017-07-27 13:00:00 35.8 8 Oeste 20 Oeste 0 944 -0.8 20
2017-07-27 12:00:00 34.2 5 Sudoeste 14 Oeste 0 944.4 -0.1 23
2017-07-27 11:00:00 30.2 4 Sudoeste 11 Oeste 0 944.5 0.3 28
2017-07-27 10:00:00 26.3 2 Oeste 5 Noroeste 0 944.8 1 33
2017-07-27 09:00:00 23.6 3 Nordeste 7 Noroeste 0 944.5 0.9 35
2017-07-27 08:00:00 20.8 3 Norte 6 Norte 0 944.2 0.8 38
2017-07-27 07:00:00 21 4 Nordeste 5 Sudeste 0 943.8 0.3 37
2017-07-27 06:00:00 21.4 3 Sudeste 5 Norte 0 943.6 -0.1 38
2017-07-27 05:00:00 22.2 3 Nordeste 6 Nordeste 0 943.4 -0.4 36
2017-07-27 04:00:00 23.1 2 Norte 5 Nordeste 0 943.5 -0.5 33
2017-07-27 03:00:00 24.5 0 Calma 9 Sur 0 943.7 -0.3 31
2017-07-27 02:00:00 25.5 3 Este 9 Este 0 943.8 0.5 29
2017-07-27 01:00:00 26.6 5 Este 13 Sur 0 944 1.3 27
2017-07-27 00:00:00 27.7 7 Sur 17 Nordeste 0 944 1.8 25
2017-07-26 23:00:00 29.4 8 Este 13 Este 0 943.3 1.3 23
2017-07-26 22:00:00 30.9 5 Este 9 Sudeste 0 942.7 0.5 22
2017-07-26 21:00:00 32.9 6 Este 13 Sudeste 0 942.2 -0.2 19
2017-07-26 20:00:00 34.7 5 Sur 14 Sur 0 942 -1 16
2017-07-26 19:00:00 35.8 5 Sudeste 15 Sudeste 0 942.2 -1.2 16
2017-07-26 18:00:00 35.4 5 Norte 25 Noroeste 0 942.4 -1.5 19
2017-07-26 17:00:00 35.1 8 Noroeste 18 Norte 0 943 -1.5 19
2017-07-26 16:00:00 34.6 6 Nordeste 19 Este 0 943.4 -1.4 19
2017-07-26 15:00:00 33.1 6 Noroeste 15 Noroeste 0 943.9 -1.2 20
2017-07-26 14:00:00 32.6 9 Este 20 Nordeste 0 944.5 -0.6 22
2017-07-26 13:00:00 31.4 8 Nordeste 21 Este 0 944.8 -0.3 26
2017-07-26 12:00:00 29.3 8 Este 21 Nordeste 0 945.1 0.2 36
2017-07-26 11:00:00 26.7 12 Este 18 Este 0 945.1 0.6 42
2017-07-26 10:00:00 24.5 11 Este 21 Este 0 945.1 1 50
2017-07-26 09:00:00 21.9 11 Este 19 Este 0 944.9 1.1 57
2017-07-26 08:00:00 19.2 7 Este 10 Este 0 944.5 0.8 60
2017-07-26 07:00:00 19.3 6 Este 11 Nordeste 0 944.1 0.3 54
2017-07-26 06:00:00 19.9 6 Este 12 Nordeste 0 943.8 0 47
2017-07-26 05:00:00 20.6 5 Este 10 Este 0 943.7 -0.2 41
2017-07-26 04:00:00 21.7 5 Nordeste 15 Norte 0 943.8 0.1 29
2017-07-26 03:00:00 23.2 7 Norte 15 Norte 0 943.8 0.9 26
2017-07-26 02:00:00 24.7 8 Norte 22 Norte 0 943.9 1.3 24
2017-07-26 01:00:00 24.6 6 Norte 13 Norte 0 943.7 1.8 25
2017-07-26 00:00:00 25.4 4 Nordeste 13 Nordeste 0 942.9 1.4 23
2017-07-25 23:00:00 26.9 8 Este 15 Nordeste 0 942.6 1.5 22
2017-07-25 22:00:00 29 8 Nordeste 26 Nordeste 0 941.9 0.9 19
2017-07-25 21:00:00 31.1 12 Nordeste 29 Nordeste 0 941.5 0.1 17
2017-07-25 20:00:00 33.8 10 Nordeste 26 Norte 0 941.1 -0.8 17
2017-07-25 19:00:00 35.1 5 Noroeste 18 Norte 0 941 -1.7 18
2017-07-25 18:00:00 34.7 8 Noroeste 23 Noroeste 0 941.4 -2.1 17
2017-07-25 17:00:00 34.2 8 Nordeste 21 Nordeste 0 941.9 -2.1 19
2017-07-25 16:00:00 33.4 6 Oeste 20 Norte 0 942.7 -1.8 22
2017-07-25 15:00:00 32.4 8 Oeste 21 Oeste 0 943.5 -1.5 23
2017-07-25 14:00:00 31.4 10 Este 24 Nordeste 0 944 -1.2 27
2017-07-25 13:00:00 30.3 11 Este 23 Este 0 944.5 -1 29
2017-07-25 12:00:00 28.9 11 Nordeste 23 Este 0 945 -0.3 35
2017-07-25 11:00:00 27.3 11 Nordeste 26 Nordeste 0 945.2 0.1 38
2017-07-25 10:00:00 25.2 9 Nordeste 21 Nordeste 0 945.5 0.5 43
2017-07-25 09:00:00 22.7 6 Nordeste 13 Nordeste 0 945.3 0.5 46
2017-07-25 08:00:00 19.9 4 Nordeste 10 Este 0 945.1 0.3 52
2017-07-25 07:00:00 20.3 7 Este 13 Nordeste 0 945 -0.2 50
2017-07-25 06:00:00 21.3 9 Nordeste 22 Nordeste 0 944.8 -0.4 47
2017-07-25 05:00:00 22 8 Nordeste 16 Nordeste 0 944.8 -0.6 45
2017-07-25 04:00:00 22.5 9 Nordeste 18 Nordeste 0 945.2 -0.3 38
2017-07-25 03:00:00 23.7 4 Norte 14 Norte 0 945.2 -0.1 31
2017-07-25 02:00:00 25.4 5 Norte 12 Nordeste 0 945.4 0.3 27
2017-07-25 01:00:00 25.5 4 Norte 10 Norte 0 945.5 0.9 24
2017-07-25 00:00:00 26.4 4 Norte 9 Norte 0 945.3 1.3 23
2017-07-24 23:00:00 27.8 5 Nordeste 9 Norte 0 945.1 1.3 23
2017-07-24 22:00:00 29.7 4 Nordeste 21 Norte 0 944.6 0.7 22
2017-07-24 21:00:00 31.8 9 Norte 24 Norte 0 944 0 22
2017-07-24 20:00:00 35.3 7 Norte 20 Noroeste 0 943.8 -0.7 17
2017-07-24 19:00:00 36.2 4 Nordeste 22 Noroeste 0 943.9 -1.2 15
2017-07-24 18:00:00 35.8 12 Noroeste 26 Oeste 0 944 -1.6 16
2017-07-24 17:00:00 35.9 7 Noroeste 22 Oeste 0 944.5 -1.5 17
2017-07-24 16:00:00 35.9 5 Oeste 24 Noroeste 0 945.1 -1.5 17
2017-07-24 15:00:00 35.2 6 Sur 22 Oeste 0 945.6 -1.4 17
2017-07-24 14:00:00 34 8 Sudeste 23 Oeste 0 946 -1.2 20
2017-07-24 13:00:00 33.2 5 Sudoeste 14 Sudeste 0 946.6 -0.8 23
2017-07-24 12:00:00 31.3 3 Este 11 Sudeste 0 947 -0.2 26
2017-07-24 11:00:00 30.1 5 Sudeste 13 Este 0 947.2 0.3 30
2017-07-24 10:00:00 27.8 7 Nordeste 13 Nordeste 0 947.4 0.8 34
2017-07-24 09:00:00 25.3 3 Este 7 Oeste 0 947.2 0.6 35
2017-07-24 08:00:00 21.9 5 Oeste 9 Sudoeste 0 946.9 0.4 37
2017-07-24 07:00:00 21.7 4 Noroeste 8 Noroeste 0 946.6 0.2 38
2017-07-24 06:00:00 21.5 6 Noroeste 14 Norte 0 946.6 -0.1 37
2017-07-24 05:00:00 21.7 6 Norte 21 Norte 0 946.5 -0.5 33
2017-07-24 04:00:00 23.3 2 Oeste 12 Oeste 0 946.4 -0.5 32
2017-07-24 03:00:00 24.4 2 Norte 9 Sudoeste 0 946.7 0 27
2017-07-24 02:00:00 25.3 6 Sudoeste 11 Oeste 0 947 0.6 26
2017-07-24 01:00:00 26.2 2 Oeste 13 Noroeste 0 946.9 1.3 24
2017-07-24 00:00:00 27.6 6 Noroeste 15 Oeste 0 946.7 1.5 19
2017-07-23 23:00:00 29 7 Oeste 19 Oeste 0 946.4 1.7 16
2017-07-23 22:00:00 30.4 6 Oeste 20 Oeste 0 945.6 0.9 14
2017-07-23 21:00:00 32.5 8 Oeste 26 Oeste 0 945.2 0.4 12
2017-07-23 20:00:00 34.5 10 Oeste 26 Oeste 0 944.7 -0.5 11
2017-07-23 19:00:00 35.5 13 Noroeste 26 Oeste 0 944.7 -0.8 10
2017-07-23 18:00:00 35.9 9 Oeste 27 Sudoeste 0 944.8 -1.3 11
2017-07-23 17:00:00 35.8 12 Oeste 28 Noroeste 0 945.2 -1.3 12
2017-07-23 16:00:00 35.8 7 Oeste 25 Oeste 0 945.5 -1.2 13
2017-07-23 15:00:00 35.4 7 Sur 27 Oeste 0 946.1 -0.7 13
2017-07-23 14:00:00 34.1 8 Oeste 22 Oeste 0 946.5 -0.1 15
2017-07-23 13:00:00 33.5 6 Sudoeste 16 Sur 0 946.7 0.1 14
2017-07-23 12:00:00 31.3 6 Sudoeste 13 Sudoeste 0 946.8 0.4 17
2017-07-23 11:00:00 29.3 3 Sudeste 7 Sur 0 946.6 0.8 20
2017-07-23 10:00:00 26 3 Este 7 Nordeste 0 946.6 1.1 25
2017-07-23 09:00:00 22.3 0 Calma 3 Este 0 946.4 1.4 33
2017-07-23 08:00:00 18.9 2 Nordeste 6 Sudoeste 0 945.8 0.9 37
2017-07-23 07:00:00 19 3 Sur 6 Sudoeste 0 945.5 0.4 35
2017-07-23 06:00:00 19.5 2 Sudeste 4 Este 0 945 -0.1 33
2017-07-23 05:00:00 20.8 0 Calma 9 Noroeste 0 944.9 -0.1 29
2017-07-23 04:00:00 21.3 5 Noroeste 9 Oeste 0 945.1 0.4 27
2017-07-23 03:00:00 21.8 4 Sudoeste 7 Sudoeste 0 945.1 0.7 31
2017-07-23 02:00:00 23.2 4 Sudoeste 7 Sudoeste 0 945 1.1 28
2017-07-23 01:00:00 25.2 5 Oeste 11 Oeste 0 944.7 1.4 22
2017-07-23 00:00:00 26.5 6 Noroeste 13 Oeste 0 944.4 1.8 21